Time;durP1;ratioP1;P1;durP2;ratioP2;P2;SDS_P1;SDS_P2;PMS_P1;PMS_P2;Temp;Humidity;BMP_temperature;BMP_pressure;BME280_temperature;BME280_humidity;BME280_pressure;Samples;Min_cycle;Max_cycle;Signal;HPM_P1;HPM_P2
2022/08/10 00:00:38;;;;;;;6.68;3.70;;;;;;;;;;4973141;28;20031;-77
2022/08/10 00:03:06;;;;;;;6.10;3.97;;;;;;;;;;4970197;28;20023;-77
2022/08/10 00:05:32;;;;;;;4.85;3.90;;;;;;;;;;4970748;28;20128;-77
2022/08/10 00:07:59;;;;;;;6.32;4.22;;;;;;;;;;4969722;28;20063;-78
2022/08/10 00:10:25;;;;;;;6.35;3.78;;;;;;;;;;4971541;28;20432;-78
2022/08/10 00:12:51;;;;;;;4.45;3.60;;;;;;;;;;4969523;28;20030;-76
2022/08/10 00:15:18;;;;;;;5.32;3.75;;;;;;;;;;4972605;28;20026;-77
2022/08/10 00:17:44;;;;;;;7.90;4.47;;;;;;;;;;4968819;28;20034;-77
2022/08/10 00:20:11;;;;;;;6.15;4.50;;;;;;;;;;4970325;28;20476;-77
2022/08/10 00:22:37;;;;;;;7.18;3.78;;;;;;;;;;4968351;28;20035;-77
2022/08/10 00:25:04;;;;;;;4.68;3.72;;;;;;;;;;4970073;28;20042;-77
2022/08/10 00:27:30;;;;;;;4.45;3.80;;;;;;;;;;4970343;28;20035;-78
2022/08/10 00:29:56;;;;;;;4.05;3.65;;;;;;;;;;4973588;28;20058;-76
2022/08/10 00:32:22;;;;;;;4.78;3.80;;;;;;;;;;4968322;28;20022;-76
2022/08/10 00:34:49;;;;;;;5.15;3.50;;;;;;;;;;4971045;28;20102;-80
2022/08/10 00:37:17;;;;;;;4.60;3.92;;;;;;;;;;4968363;28;20035;-77
2022/08/10 00:39:43;;;;;;;7.63;3.78;;;;;;;;;;4972259;28;20520;-77
2022/08/10 00:42:10;;;;;;;5.82;3.53;;;;;;;;;;4980358;28;20042;-77
2022/08/10 00:44:37;;;;;;;5.10;3.60;;;;;;;;;;4973759;28;20054;-78
2022/08/10 00:47:04;;;;;;;6.25;3.67;;;;;;;;;;4974681;28;20030;-78
2022/08/10 00:49:30;;;;;;;5.47;3.22;;;;;;;;;;4972780;28;20029;-77
2022/08/10 00:51:56;;;;;;;6.53;3.80;;;;;;;;;;4982565;28;20026;-77
2022/08/10 00:54:23;;;;;;;6.57;3.75;;;;;;;;;;4981642;28;20465;-78
2022/08/10 00:56:49;;;;;;;7.78;3.67;;;;;;;;;;4980654;28;20030;-77
2022/08/10 00:59:15;;;;;;;5.90;3.72;;;;;;;;;;4971515;28;20027;-78
2022/08/10 01:01:41;;;;;;;5.53;4.15;;;;;;;;;;4978955;28;20037;-77
2022/08/10 01:04:07;;;;;;;6.70;3.50;;;;;;;;;;4972745;28;20174;-77
2022/08/10 01:06:36;;;;;;;5.32;3.50;;;;;;;;;;4976875;28;20045;-79
2022/08/10 01:09:09;;;;;;;4.80;3.95;;;;;;;;;;4976106;28;20032;-76
2022/08/10 01:11:43;;;;;;;5.18;3.30;;;;;;;;;;4981988;28;20481;-78
2022/08/10 01:14:12;;;;;;;4.15;3.40;;;;;;;;;;4969509;28;20023;-78
2022/08/10 01:16:44;;;;;;;6.70;3.83;;;;;;;;;;4973008;28;20046;-77
2022/08/10 01:19:13;;;;;;;5.47;3.67;;;;;;;;;;4973167;28;20023;-77
2022/08/10 01:21:58;;;;;;;5.35;3.40;;;;;;;;;;4970824;28;20034;-77
2022/08/10 01:24:30;;;;;;;5.72;3.70;;;;;;;;;;4968246;28;20045;-78
2022/08/10 01:26:56;;;;;;;6.00;3.47;;;;;;;;;;4969690;28;20027;-77
2022/08/10 01:29:35;;;;;;;7.20;3.60;;;;;;;;;;4969708;28;20058;-78
2022/08/10 01:32:03;;;;;;;3.50;3.20;;;;;;;;;;4972008;28;20042;-77
2022/08/10 01:34:32;;;;;;;8.60;3.40;;;;;;;;;;4984846;28;20037;-78
2022/08/10 01:37:01;;;;;;;4.53;3.42;;;;;;;;;;4971416;28;20482;-78
2022/08/10 01:39:34;;;;;;;4.75;3.65;;;;;;;;;;4974371;28;20038;-77
2022/08/10 01:42:02;;;;;;;4.93;3.33;;;;;;;;;;4978042;28;20043;-77
2022/08/10 01:44:35;;;;;;;5.88;3.58;;;;;;;;;;4978091;28;20113;-78
2022/08/10 01:49:53;;;;;;;4.70;2.97;;;;;;;;;;4966118;28;20083;-78
2022/08/10 01:52:20;;;;;;;4.53;3.30;;;;;;;;;;4973709;28;20027;-76
2022/08/10 01:54:46;;;;;;;5.78;3.47;;;;;;;;;;4975615;28;20045;-78
2022/08/10 01:57:13;;;;;;;4.95;3.30;;;;;;;;;;4982884;28;20027;-78
2022/08/10 01:59:41;;;;;;;4.30;3.90;;;;;;;;;;4972798;28;20033;-76
2022/08/10 02:02:09;;;;;;;6.88;3.63;;;;;;;;;;4987896;28;20654;-78
2022/08/10 02:04:37;;;;;;;4.43;3.42;;;;;;;;;;4983834;28;20062;-78
2022/08/10 02:07:04;;;;;;;6.13;3.40;;;;;;;;;;4980370;28;20051;-77
2022/08/10 02:09:31;;;;;;;5.47;3.13;;;;;;;;;;4982611;28;20493;-78
2022/08/10 02:12:00;;;;;;;4.50;3.40;;;;;;;;;;4999198;28;20032;-78
2022/08/10 02:14:28;;;;;;;4.93;3.28;;;;;;;;;;4988986;28;20042;-77
2022/08/10 02:16:55;;;;;;;7.15;3.17;;;;;;;;;;4972975;28;20031;-76
2022/08/10 02:19:24;;;;;;;6.32;3.75;;;;;;;;;;4969849;28;20173;-79
2022/08/10 02:21:50;;;;;;;7.95;4.00;;;;;;;;;;4977401;28;20022;-77
2022/08/10 02:24:17;;;;;;;4.43;3.42;;;;;;;;;;4980453;28;20070;-78
2022/08/10 02:26:45;;;;;;;6.10;3.45;;;;;;;;;;4980964;28;20031;-77
2022/08/10 02:29:13;;;;;;;4.85;3.50;;;;;;;;;;4970361;28;20023;-77
2022/08/10 02:31:41;;;;;;;7.20;3.53;;;;;;;;;;4970230;28;20030;-77
2022/08/10 02:34:08;;;;;;;4.43;3.70;;;;;;;;;;4967535;28;20023;-77
2022/08/10 02:36:34;;;;;;;4.10;3.40;;;;;;;;;;4972627;28;20023;-77
2022/08/10 02:39:02;;;;;;;4.50;3.60;;;;;;;;;;4970618;28;20041;-78
2022/08/10 02:41:31;;;;;;;4.15;3.65;;;;;;;;;;4974271;28;20033;-78
2022/08/10 02:44:03;;;;;;;4.82;3.83;;;;;;;;;;4984267;28;20022;-77
2022/08/10 02:46:32;;;;;;;4.30;3.42;;;;;;;;;;4972683;28;20478;-76
2022/08/10 02:49:02;;;;;;;6.15;3.65;;;;;;;;;;4968271;28;20545;-76
2022/08/10 02:51:48;;;;;;;5.10;3.63;;;;;;;;;;4972598;28;20377;-77
2022/08/10 02:54:17;;;;;;;6.30;3.72;;;;;;;;;;4969127;28;20082;-74
2022/08/10 02:56:51;;;;;;;3.92;3.50;;;;;;;;;;4970040;28;20118;-77
2022/08/10 02:59:24;;;;;;;11.90;3.97;;;;;;;;;;4973557;28;20035;-76
2022/08/10 03:01:53;;;;;;;4.30;3.83;;;;;;;;;;4965709;28;20265;-77
2022/08/10 03:04:21;;;;;;;5.85;3.63;;;;;;;;;;4970214;28;20040;-76
2022/08/10 03:07:07;;;;;;;5.43;3.88;;;;;;;;;;4971322;28;20043;-77
2022/08/10 03:09:36;;;;;;;4.82;3.85;;;;;;;;;;4968199;28;20034;-78
2022/08/10 03:12:07;;;;;;;5.05;3.80;;;;;;;;;;4972159;28;20077;-77
2022/08/10 03:14:35;;;;;;;5.95;3.80;;;;;;;;;;4969542;28;20031;-77
2022/08/10 03:17:01;;;;;;;4.00;3.60;;;;;;;;;;4967709;28;20035;-75
2022/08/10 03:19:29;;;;;;;4.72;3.80;;;;;;;;;;4971938;28;20026;-77
2022/08/10 03:21:56;;;;;;;5.70;3.60;;;;;;;;;;4991596;28;20022;-77
2022/08/10 03:24:24;;;;;;;6.75;3.80;;;;;;;;;;4982420;28;20033;-77
2022/08/10 03:26:51;;;;;;;4.72;3.78;;;;;;;;;;4966850;28;20045;-77
2022/08/10 03:29:19;;;;;;;5.22;3.75;;;;;;;;;;4974704;28;20534;-77
2022/08/10 03:31:45;;;;;;;5.43;3.83;;;;;;;;;;4979556;28;20033;-76
2022/08/10 03:34:12;;;;;;;6.32;4.28;;;;;;;;;;4976678;28;20023;-77
2022/08/10 03:36:38;;;;;;;7.75;3.85;;;;;;;;;;4969425;28;20030;-77
2022/08/10 03:39:04;;;;;;;5.65;3.75;;;;;;;;;;4969017;28;20046;-77
2022/08/10 03:41:33;;;;;;;4.47;3.78;;;;;;;;;;4972552;28;20162;-77
2022/08/10 03:44:00;;;;;;;6.10;3.72;;;;;;;;;;4973040;28;20031;-78
2022/08/10 03:46:28;;;;;;;3.95;3.38;;;;;;;;;;4975212;28;20489;-77
2022/08/10 03:48:56;;;;;;;5.93;3.97;;;;;;;;;;4972614;28;20082;-77
2022/08/10 03:51:22;;;;;;;4.47;3.70;;;;;;;;;;4977174;28;20118;-76
2022/08/10 03:53:49;;;;;;;6.25;3.83;;;;;;;;;;4970369;28;20145;-78
2022/08/10 03:56:16;;;;;;;4.05;3.40;;;;;;;;;;4970616;28;20110;-77
2022/08/10 03:58:42;;;;;;;6.32;3.90;;;;;;;;;;4967946;28;20031;-76
2022/08/10 04:01:08;;;;;;;4.75;3.80;;;;;;;;;;4968478;28;20054;-76
2022/08/10 04:03:35;;;;;;;5.18;3.83;;;;;;;;;;4969147;28;20031;-76
2022/08/10 04:06:01;;;;;;;4.43;4.00;;;;;;;;;;4971235;28;20035;-77
2022/08/10 04:08:28;;;;;;;5.22;4.55;;;;;;;;;;4971829;28;20030;-76
2022/08/10 04:10:54;;;;;;;5.75;4.25;;;;;;;;;;4966078;28;20030;-77
2022/08/10 04:13:21;;;;;;;5.90;3.58;;;;;;;;;;4976793;28;20023;-78
2022/08/10 04:15:48;;;;;;;5.60;4.10;;;;;;;;;;4975312;28;20037;-77
2022/08/10 04:18:14;;;;;;;6.18;3.72;;;;;;;;;;4982081;28;20023;-80
2022/08/10 04:20:44;;;;;;;4.22;3.83;;;;;;;;;;4967852;28;20031;-78
2022/08/10 04:23:17;;;;;;;9.15;3.67;;;;;;;;;;4974049;28;20119;-76
2022/08/10 04:25:44;;;;;;;4.45;3.83;;;;;;;;;;4967774;28;20023;-76
2022/08/10 04:28:10;;;;;;;6.80;4.25;;;;;;;;;;4973211;28;20052;-76
2022/08/10 04:30:37;;;;;;;6.50;4.22;;;;;;;;;;4974640;28;20030;-76
2022/08/10 04:33:05;;;;;;;6.55;3.75;;;;;;;;;;4973782;28;20023;-76
2022/08/10 04:35:31;;;;;;;5.90;4.13;;;;;;;;;;4965248;28;20421;-76
2022/08/10 04:37:58;;;;;;;5.65;3.72;;;;;;;;;;4974589;28;20026;-76
2022/08/10 04:40:25;;;;;;;5.93;3.78;;;;;;;;;;4969774;28;20502;-76
2022/08/10 04:42:51;;;;;;;4.68;3.70;;;;;;;;;;4972762;28;20035;-78
2022/08/10 04:45:17;;;;;;;5.15;4.65;;;;;;;;;;4975053;28;20041;-76
2022/08/10 04:47:43;;;;;;;6.65;4.00;;;;;;;;;;4975673;28;20406;-77
2022/08/10 04:50:09;;;;;;;5.18;3.55;;;;;;;;;;4966181;28;20481;-77
2022/08/10 04:52:36;;;;;;;6.78;3.95;;;;;;;;;;4970732;28;20535;-77
2022/08/10 04:55:03;;;;;;;5.22;4.40;;;;;;;;;;4976545;28;20015;-77
2022/08/10 04:57:29;;;;;;;4.38;3.88;;;;;;;;;;4977804;28;20042;-77
2022/08/10 04:59:55;;;;;;;5.63;4.50;;;;;;;;;;4968679;28;20071;-76
2022/08/10 05:02:21;;;;;;;5.07;3.90;;;;;;;;;;4958799;28;20474;-77
2022/08/10 05:04:47;;;;;;;5.40;3.78;;;;;;;;;;4971534;28;20497;-77
2022/08/10 05:07:15;;;;;;;4.60;3.60;;;;;;;;;;4970770;28;20061;-77
2022/08/10 05:09:41;;;;;;;5.47;3.83;;;;;;;;;;4975553;28;20042;-76
2022/08/10 05:12:08;;;;;;;6.43;4.05;;;;;;;;;;4970588;28;20034;-77
2022/08/10 05:14:34;;;;;;;5.05;3.88;;;;;;;;;;4968378;28;20101;-77
2022/08/10 05:17:00;;;;;;;5.05;4.05;;;;;;;;;;4973108;28;20473;-76
2022/08/10 05:19:26;;;;;;;5.60;3.72;;;;;;;;;;4969928;28;20050;-76
2022/08/10 05:21:52;;;;;;;4.80;3.78;;;;;;;;;;4970103;28;20511;-77
2022/08/10 05:24:18;;;;;;;4.90;3.50;;;;;;;;;;4973473;28;20113;-77
2022/08/10 05:26:45;;;;;;;5.05;4.50;;;;;;;;;;4972683;28;20035;-75
2022/08/10 05:29:11;;;;;;;7.07;4.30;;;;;;;;;;4970759;28;20521;-76
2022/08/10 05:31:37;;;;;;;4.93;3.92;;;;;;;;;;4973233;28;20031;-76
2022/08/10 05:34:03;;;;;;;5.93;3.35;;;;;;;;;;4971137;28;20105;-76
2022/08/10 05:36:30;;;;;;;5.93;3.80;;;;;;;;;;4967530;28;20553;-76
2022/08/10 05:38:57;;;;;;;5.53;4.07;;;;;;;;;;4969430;28;20474;-75
2022/08/10 05:41:23;;;;;;;5.55;3.92;;;;;;;;;;4973730;28;20023;-76
2022/08/10 05:43:50;;;;;;;5.15;3.88;;;;;;;;;;4971468;28;20482;-76
2022/08/10 05:46:16;;;;;;;5.22;3.60;;;;;;;;;;4972758;28;20030;-75
2022/08/10 05:48:42;;;;;;;6.53;3.33;;;;;;;;;;4969417;28;20434;-75
2022/08/10 05:51:09;;;;;;;4.30;3.72;;;;;;;;;;4974007;28;20023;-77
2022/08/10 05:53:37;;;;;;;5.90;3.80;;;;;;;;;;4970299;28;20027;-77
2022/08/10 05:56:05;;;;;;;5.10;3.10;;;;;;;;;;4976107;28;20029;-76
2022/08/10 05:58:31;;;;;;;4.75;3.25;;;;;;;;;;4978388;28;20473;-77
2022/08/10 06:00:59;;;;;;;4.28;3.20;;;;;;;;;;4973978;28;20022;-76
2022/08/10 06:03:27;;;;;;;5.53;3.72;;;;;;;;;;4970146;28;20058;-75
2022/08/10 06:05:56;;;;;;;3.92;3.53;;;;;;;;;;4967784;28;20437;-76
2022/08/10 06:08:24;;;;;;;5.03;3.53;;;;;;;;;;4971599;28;20027;-77
2022/08/10 06:10:53;;;;;;;6.43;3.33;;;;;;;;;;4970093;28;20063;-77
2022/08/10 06:16:04;;;;;;;;;;;;;;;;;;4974764;28;20058;-76
2022/08/10 06:18:32;;;;;;;4.53;3.28;;;;;;;;;;4990620;28;19910;-76
2022/08/10 06:20:59;;;;;;;6.00;3.45;;;;;;;;;;4982566;28;20038;-76
2022/08/10 06:23:26;;;;;;;4.85;3.50;;;;;;;;;;4983099;28;20023;-77
2022/08/10 06:25:54;;;;;;;6.30;3.60;;;;;;;;;;4973766;28;20109;-77
2022/08/10 06:28:21;;;;;;;4.35;3.40;;;;;;;;;;4989450;28;20047;-77
2022/08/10 06:30:49;;;;;;;4.25;3.20;;;;;;;;;;4978059;28;20474;-75
2022/08/10 06:33:16;;;;;;;6.97;3.20;;;;;;;;;;4977773;28;20030;-76
2022/08/10 06:35:43;;;;;;;4.13;3.15;;;;;;;;;;4977884;28;20484;-75
2022/08/10 06:38:10;;;;;;;4.00;3.22;;;;;;;;;;4979363;28;20031;-77
2022/08/10 06:40:39;;;;;;;5.68;3.28;;;;;;;;;;4976590;28;20019;-77
2022/08/10 06:43:08;;;;;;;7.22;3.35;;;;;;;;;;4970059;28;20089;-79
2022/08/10 06:45:40;;;;;;;5.60;3.60;;;;;;;;;;4970501;28;20054;-77
2022/08/10 06:48:18;;;;;;;4.65;3.33;;;;;;;;;;4977088;28;20066;-78
2022/08/10 06:50:49;;;;;;;4.07;3.00;;;;;;;;;;4972649;28;20038;-76
2022/08/10 06:53:20;;;;;;;3.25;2.80;;;;;;;;;;4987611;28;20034;-78
2022/08/10 06:55:49;;;;;;;4.32;2.92;;;;;;;;;;4979861;28;20050;-76
2022/08/10 06:58:16;;;;;;;9.15;4.78;;;;;;;;;;4976351;28;20107;-78
2022/08/10 07:00:44;;;;;;;4.95;3.30;;;;;;;;;;4981520;28;20026;-76
2022/08/10 07:03:11;;;;;;;5.10;3.17;;;;;;;;;;4982826;28;20034;-77
2022/08/10 07:05:40;;;;;;;6.43;3.22;;;;;;;;;;4979423;28;20066;-77
2022/08/10 07:08:06;;;;;;;5.32;3.28;;;;;;;;;;4976865;28;20034;-77
2022/08/10 07:10:33;;;;;;;11.05;3.50;;;;;;;;;;4980994;28;20486;-77
2022/08/10 07:13:00;;;;;;;4.82;3.38;;;;;;;;;;4978251;28;20041;-77
2022/08/10 07:15:27;;;;;;;6.32;3.13;;;;;;;;;;4979372;28;20030;-77
2022/08/10 07:17:53;;;;;;;4.30;3.33;;;;;;;;;;4991474;28;20042;-77
2022/08/10 07:20:20;;;;;;;3.30;3.00;;;;;;;;;;4973005;28;20109;-77
2022/08/10 07:22:47;;;;;;;5.25;3.13;;;;;;;;;;4973253;28;20125;-77
2022/08/10 07:25:15;;;;;;;7.53;3.40;;;;;;;;;;4974701;28;20069;-77
2022/08/10 07:27:42;;;;;;;3.95;2.67;;;;;;;;;;4959877;28;20020;-77
2022/08/10 07:30:08;;;;;;;4.55;2.78;;;;;;;;;;4968458;28;20027;-77
2022/08/10 07:32:35;;;;;;;6.45;3.15;;;;;;;;;;4969479;28;20030;-78
2022/08/10 07:35:02;;;;;;;6.43;3.88;;;;;;;;;;4972346;28;20050;-78
2022/08/10 07:37:30;;;;;;;5.65;2.83;;;;;;;;;;4969921;28;20101;-78
2022/08/10 07:39:56;;;;;;;5.75;3.55;;;;;;;;;;4977884;28;20034;-77
2022/08/10 07:42:24;;;;;;;3.28;2.70;;;;;;;;;;4990219;28;20031;-77
2022/08/10 07:44:50;;;;;;;6.03;3.30;;;;;;;;;;4975129;28;20030;-78
2022/08/10 07:47:23;;;;;;;3.88;2.83;;;;;;;;;;4968464;28;20023;-76
2022/08/10 07:49:51;;;;;;;4.93;2.83;;;;;;;;;;4963324;28;20568;-79
2022/08/10 07:52:17;;;;;;;3.50;2.80;;;;;;;;;;4971729;28;20038;-77
2022/08/10 07:54:45;;;;;;;4.00;2.70;;;;;;;;;;4971266;28;20022;-77
2022/08/10 07:57:17;;;;;;;3.53;2.97;;;;;;;;;;4999699;28;20376;-78
2022/08/10 07:59:45;;;;;;;4.38;2.58;;;;;;;;;;4968208;28;20074;-77
2022/08/10 08:02:32;;;;;;;5.10;2.63;;;;;;;;;;4968019;28;20486;-77
2022/08/10 08:05:00;;;;;;;4.38;2.53;;;;;;;;;;4991169;28;20093;-77
2022/08/10 08:07:27;;;;;;;3.50;2.50;;;;;;;;;;4990431;28;20431;-77
2022/08/10 08:09:54;;;;;;;3.83;2.40;;;;;;;;;;5003295;28;20113;-77
2022/08/10 08:12:20;;;;;;;3.25;2.47;;;;;;;;;;4973335;28;20027;-77
2022/08/10 08:14:47;;;;;;;3.72;2.40;;;;;;;;;;4983844;28;20081;-78
2022/08/10 08:17:15;;;;;;;4.60;3.40;;;;;;;;;;4968947;28;20034;-78
2022/08/10 08:19:42;;;;;;;3.47;2.88;;;;;;;;;;4969503;28;20058;-77
2022/08/10 08:22:09;;;;;;;3.10;2.40;;;;;;;;;;4968984;28;20026;-77
2022/08/10 08:24:35;;;;;;;5.20;2.45;;;;;;;;;;4970693;28;20082;-78
2022/08/10 08:27:02;;;;;;;3.40;2.83;;;;;;;;;;4967180;28;20564;-81
2022/08/10 08:29:31;;;;;;;2.55;2.17;;;;;;;;;;4966150;28;20035;-77
2022/08/10 08:31:57;;;;;;;4.32;2.42;;;;;;;;;;4967045;28;20023;-79
2022/08/10 08:34:24;;;;;;;2.95;2.40;;;;;;;;;;4968243;28;20030;-79
2022/08/10 08:36:50;;;;;;;5.10;2.78;;;;;;;;;;4965084;28;20141;-78
2022/08/10 08:39:16;;;;;;;2.95;2.50;;;;;;;;;;4975218;28;20034;-79
2022/08/10 08:41:56;;;;;;;3.67;2.20;;;;;;;;;;4969285;28;20062;-77
2022/08/10 08:44:28;;;;;;;6.93;2.67;;;;;;;;;;4987766;28;20066;-78
2022/08/10 08:47:00;;;;;;;2.95;2.30;;;;;;;;;;4979347;28;20418;-78
2022/08/10 08:49:52;;;;;;;3.53;2.20;;;;;;;;;;4988099;28;20440;-78
2022/08/10 08:52:21;;;;;;;4.78;2.53;;;;;;;;;;4970178;28;20435;-77
2022/08/10 08:54:53;;;;;;;2.28;2.08;;;;;;;;;;4981701;28;20022;-78
2022/08/10 08:57:28;;;;;;;2.20;2.00;;;;;;;;;;4964810;28;20066;-79
2022/08/10 08:59:56;;;;;;;2.22;1.95;;;;;;;;;;4974662;28;20023;-79
2022/08/10 09:02:42;;;;;;;2.60;2.10;;;;;;;;;;4969710;28;20031;-78
2022/08/10 09:05:12;;;;;;;3.20;1.90;;;;;;;;;;4984824;28;20023;-76
2022/08/10 09:07:47;;;;;;;2.50;2.20;;;;;;;;;;4971682;28;20059;-79
2022/08/10 09:10:19;;;;;;;2.83;2.10;;;;;;;;;;4988966;28;20257;-80
2022/08/10 09:13:06;;;;;;;6.68;2.10;;;;;;;;;;4974628;28;20030;-78
2022/08/10 09:15:35;;;;;;;1.98;1.80;;;;;;;;;;4982993;28;20687;-79
2022/08/10 09:18:04;;;;;;;2.88;1.80;;;;;;;;;;4970222;28;20520;-81
2022/08/10 09:20:34;;;;;;;2.03;1.63;;;;;;;;;;4966417;28;20482;-79
2022/08/10 09:23:09;;;;;;;2.05;1.60;;;;;;;;;;4969222;28;20118;-79
2022/08/10 09:25:36;;;;;;;3.78;1.95;;;;;;;;;;4982555;28;20058;-78
2022/08/10 09:28:04;;;;;;;2.30;1.80;;;;;;;;;;4972319;28;20027;-78
2022/08/10 09:30:33;;;;;;;2.75;2.40;;;;;;;;;;4967007;28;20023;-78
2022/08/10 09:33:08;;;;;;;3.10;1.88;;;;;;;;;;4968627;28;20109;-79
2022/08/10 09:35:34;;;;;;;4.20;2.17;;;;;;;;;;4962814;28;20110;-77
2022/08/10 09:38:07;;;;;;;3.78;2.10;;;;;;;;;;4965949;28;20046;-77
2022/08/10 09:40:33;;;;;;;2.38;1.98;;;;;;;;;;4964182;28;20039;-76
2022/08/10 09:43:06;;;;;;;2.70;1.88;;;;;;;;;;4979310;28;20297;-76
2022/08/10 09:45:52;;;;;;;3.58;2.10;;;;;;;;;;4965046;28;20033;-82
2022/08/10 09:48:30;;;;;;;2.28;1.80;;;;;;;;;;4966589;28;20071;-79
2022/08/10 09:51:00;;;;;;;6.72;2.20;;;;;;;;;;4961888;28;20086;-79
2022/08/10 09:53:32;;;;;;;3.30;2.00;;;;;;;;;;4970535;28;20101;-82
2022/08/10 09:56:17;;;;;;;2.92;2.20;;;;;;;;;;4969019;28;20038;-85
2022/08/10 09:58:43;;;;;;;;;;;;;;;;;;4969049;28;20034;-79
2022/08/10 10:01:12;;;;;;;4.65;2.05;;;;;;;;;;4972689;28;19933;-79
2022/08/10 10:03:54;;;;;;;2.38;2.13;;;;;;;;;;4971216;28;20049;-80
2022/08/10 10:06:40;;;;;;;2.92;2.13;;;;;;;;;;4973362;28;20093;-78
2022/08/10 10:09:19;;;;;;;4.97;1.95;;;;;;;;;;4963564;28;20522;-78
2022/08/10 10:12:06;;;;;;;2.50;1.98;;;;;;;;;;4978601;28;20027;-76
2022/08/10 10:15:19;;;;;;;2.97;1.95;;;;;;;;;;4970006;28;20294;-77
2022/08/10 10:17:29;;;;;;;2.88;2.30;;;;;;;;;;4975901;28;20114;-79
2022/08/10 10:20:15;;;;;;;5.38;3.05;;;;;;;;;;4969570;28;20022;-78
2022/08/10 10:22:58;;;;;;;2.75;2.00;;;;;;;;;;4959293;28;20043;-78
2022/08/10 10:25:28;;;;;;;2.40;2.15;;;;;;;;;;4974770;28;20034;-77
2022/08/10 10:28:15;;;;;;;4.43;2.15;;;;;;;;;;4969054;28;20026;-78
2022/08/10 10:30:55;;;;;;;3.90;2.30;;;;;;;;;;4971792;28;20030;-79
2022/08/10 10:33:42;;;;;;;2.20;2.00;;;;;;;;;;4974249;28;20035;-78
2022/08/10 10:36:09;;;;;;;3.58;2.50;;;;;;;;;;4977510;28;20393;-78
2022/08/10 10:38:36;;;;;;;3.10;2.03;;;;;;;;;;4964703;28;20086;-78
2022/08/10 10:41:03;;;;;;;3.58;2.17;;;;;;;;;;4965066;28;20051;-78
2022/08/10 10:43:29;;;;;;;3.38;2.08;;;;;;;;;;4969536;28;20388;-78
2022/08/10 10:46:13;;;;;;;3.60;3.15;;;;;;;;;;4967100;28;20034;-79
2022/08/10 10:49:00;;;;;;;3.17;1.90;;;;;;;;;;4966204;28;20122;-80
2022/08/10 10:51:28;;;;;;;4.97;2.15;;;;;;;;;;4952900;28;20047;-78
2022/08/10 10:54:07;;;;;;;2.40;2.03;;;;;;;;;;4985948;28;20030;-78
2022/08/10 10:56:33;;;;;;;3.10;2.10;;;;;;;;;;4973866;28;20030;-81
2022/08/10 10:59:23;;;;;;;3.88;2.55;;;;;;;;;;4966411;28;20023;-79
2022/08/10 11:01:55;;;;;;;3.58;2.17;;;;;;;;;;4951162;28;20101;-78
2022/08/10 11:04:29;;;;;;;3.75;2.20;;;;;;;;;;4971076;28;20031;-78
2022/08/10 11:07:09;;;;;;;2.90;2.17;;;;;;;;;;4970879;28;20214;-78
2022/08/10 11:09:48;;;;;;;3.88;2.30;;;;;;;;;;4975146;28;20122;-78
2022/08/10 11:12:29;;;;;;;2.30;2.10;;;;;;;;;;4976327;28;20668;-78
2022/08/10 11:15:02;;;;;;;2.38;2.00;;;;;;;;;;4972964;28;20038;-79
2022/08/10 11:17:33;;;;;;;5.00;2.10;;;;;;;;;;4966449;28;20026;-77
2022/08/10 11:20:02;;;;;;;4.40;2.22;;;;;;;;;;4967105;28;20282;-81
2022/08/10 11:22:34;;;;;;;2.03;1.83;;;;;;;;;;4967926;28;20022;-79
2022/08/10 11:25:00;;;;;;;2.92;2.00;;;;;;;;;;4964916;28;20038;-78
2022/08/10 11:27:39;;;;;;;2.30;2.10;;;;;;;;;;4967637;28;20027;-79
2022/08/10 11:30:10;;;;;;;3.47;1.92;;;;;;;;;;4966304;28;20035;-78
2022/08/10 11:32:46;;;;;;;2.83;2.05;;;;;;;;;;4963535;28;20023;-78
2022/08/10 11:35:12;;;;;;;3.67;1.90;;;;;;;;;;4967013;28;20019;-78
2022/08/10 11:37:44;;;;;;;2.22;2.00;;;;;;;;;;4967607;28;20027;-78
2022/08/10 11:40:33;;;;;;;3.05;1.95;;;;;;;;;;4965850;28;20610;-78
2022/08/10 11:43:20;;;;;;;1.92;1.70;;;;;;;;;;4976037;28;20038;-78
2022/08/10 11:46:01;;;;;;;2.20;2.00;;;;;;;;;;4969224;28;20027;-78
2022/08/10 11:48:32;;;;;;;1.90;1.60;;;;;;;;;;4968016;28;20587;-80
2022/08/10 11:50:59;;;;;;;3.88;2.22;;;;;;;;;;4983011;28;20113;-78
2022/08/10 11:53:31;;;;;;;3.10;2.35;;;;;;;;;;4967712;28;20022;-77
2022/08/10 11:55:58;;;;;;;3.72;1.80;;;;;;;;;;4967732;28;20090;-79
2022/08/10 12:01:13;;;;;;;2.15;1.98;;;;;;;;;;4965984;28;20049;-79
2022/08/10 12:03:41;;;;;;;2.22;1.73;;;;;;;;;;4985489;28;20027;-78
2022/08/10 12:06:12;;;;;;;2.47;2.10;;;;;;;;;;4966362;28;20085;-79
2022/08/10 12:08:40;;;;;;;2.28;2.05;;;;;;;;;;4968907;28;20128;-79
2022/08/10 12:11:07;;;;;;;1.90;1.80;;;;;;;;;;4968522;28;20027;-78
2022/08/10 12:13:39;;;;;;;2.00;1.80;;;;;;;;;;4967479;28;20035;-77
2022/08/10 12:16:10;;;;;;;1.90;1.80;;;;;;;;;;4981182;28;20097;-77
2022/08/10 12:18:45;;;;;;;2.63;1.90;;;;;;;;;;4962849;28;20663;-78
2022/08/10 12:21:22;;;;;;;1.77;1.60;;;;;;;;;;4964602;28;20031;-76
2022/08/10 12:23:50;;;;;;;1.92;1.73;;;;;;;;;;4966411;28;20031;-78
2022/08/10 12:26:17;;;;;;;2.13;1.70;;;;;;;;;;4968400;28;20045;-79
2022/08/10 12:29:03;;;;;;;1.80;1.70;;;;;;;;;;4964964;28;20094;-78
2022/08/10 12:31:38;;;;;;;2.95;1.80;;;;;;;;;;4964194;28;20046;-78
2022/08/10 12:34:18;;;;;;;1.80;1.65;;;;;;;;;;4962166;28;20035;-78
2022/08/10 12:36:47;;;;;;;1.88;1.70;;;;;;;;;;4962737;28;20039;-78
2022/08/10 12:39:24;;;;;;;1.95;1.60;;;;;;;;;;4964480;28;20077;-78
2022/08/10 12:42:01;;;;;;;2.63;1.80;;;;;;;;;;4961861;28;20027;-77
2022/08/10 12:44:38;;;;;;;2.63;1.80;;;;;;;;;;4964717;28;20405;-78
2022/08/10 12:47:18;;;;;;;2.50;1.70;;;;;;;;;;4963019;28;20035;-78
2022/08/10 12:50:07;;;;;;;2.55;1.58;;;;;;;;;;4962917;28;20037;-79
2022/08/10 12:52:39;;;;;;;1.80;1.70;;;;;;;;;;4960156;28;20498;-77
2022/08/10 12:55:10;;;;;;;2.95;1.70;;;;;;;;;;4961458;28;20177;-78
2022/08/10 12:57:37;;;;;;;1.80;1.70;;;;;;;;;;4961516;28;20038;-78
2022/08/10 13:00:05;;;;;;;1.77;1.67;;;;;;;;;;4964130;28;20090;-79
2022/08/10 13:02:34;;;;;;;1.75;1.65;;;;;;;;;;4965240;28;20169;-78
2022/08/10 13:05:09;;;;;;;1.80;1.70;;;;;;;;;;4963373;28;20041;-79
2022/08/10 13:07:37;;;;;;;1.67;1.58;;;;;;;;;;4963238;28;20050;-79
2022/08/10 13:10:10;;;;;;;1.70;1.60;;;;;;;;;;4966174;28;20390;-79
2022/08/10 13:12:44;;;;;;;2.00;1.70;;;;;;;;;;4960586;28;20489;-80
2022/08/10 13:15:10;;;;;;;;;;;;;;;;;;4964000;28;20031;-79
2022/08/10 13:17:39;;;;;;;1.92;1.60;;;;;;;;;;4966487;28;20006;-78
2022/08/10 13:20:11;;;;;;;2.83;2.22;;;;;;;;;;4965142;28;20552;-78
2022/08/10 13:22:38;;;;;;;3.30;1.70;;;;;;;;;;4964416;28;20159;-79
2022/08/10 13:25:06;;;;;;;2.90;1.80;;;;;;;;;;4963169;28;20095;-78
2022/08/10 13:27:38;;;;;;;1.77;1.67;;;;;;;;;;4964013;28;20074;-77
2022/08/10 13:30:06;;;;;;;1.90;1.70;;;;;;;;;;4960547;28;20121;-79
2022/08/10 13:32:32;;;;;;;1.38;1.33;;;;;;;;;;4966038;28;20258;-78
2022/08/10 13:35:01;;;;;;;1.73;1.63;;;;;;;;;;4964260;28;20026;-78
2022/08/10 13:37:29;;;;;;;1.70;1.60;;;;;;;;;;4964467;28;20035;-78
2022/08/10 13:39:58;;;;;;;2.08;1.65;;;;;;;;;;4964047;28;20558;-79
2022/08/10 13:42:27;;;;;;;2.92;1.75;;;;;;;;;;4967595;28;20046;-79
2022/08/10 13:44:53;;;;;;;2.63;1.85;;;;;;;;;;4963447;28;20038;-78
2022/08/10 13:47:28;;;;;;;2.22;1.70;;;;;;;;;;4969526;28;20086;-78
2022/08/10 13:49:55;;;;;;;1.98;1.70;;;;;;;;;;4964583;28;20117;-79
2022/08/10 13:52:22;;;;;;;3.38;1.60;;;;;;;;;;4964336;28;20039;-78
2022/08/10 13:54:49;;;;;;;1.63;1.52;;;;;;;;;;4964541;28;20033;-78
2022/08/10 13:57:23;;;;;;;1.90;1.80;;;;;;;;;;4964157;28;20493;-78
2022/08/10 13:59:52;;;;;;;3.35;1.70;;;;;;;;;;4962840;28;20082;-78
2022/08/10 14:02:34;;;;;;;2.30;1.70;;;;;;;;;;4966402;28;20368;-78
2022/08/10 14:05:02;;;;;;;2.72;1.60;;;;;;;;;;4969554;28;20031;-78
2022/08/10 14:07:31;;;;;;;1.67;1.58;;;;;;;;;;4963943;28;20031;-78
2022/08/10 14:10:06;;;;;;;1.60;1.50;;;;;;;;;;4967129;28;20031;-78
2022/08/10 14:12:35;;;;;;;2.50;2.13;;;;;;;;;;4963211;28;20362;-79
2022/08/10 14:15:02;;;;;;;1.60;1.50;;;;;;;;;;4963269;28;20567;-79
2022/08/10 14:17:29;;;;;;;2.58;1.70;;;;;;;;;;4963712;28;20030;-78
2022/08/10 14:19:57;;;;;;;3.42;1.70;;;;;;;;;;4964266;28;20034;-78
2022/08/10 14:22:23;;;;;;;1.80;1.70;;;;;;;;;;4964846;28;20023;-78
2022/08/10 14:24:51;;;;;;;2.22;1.65;;;;;;;;;;4967804;28;20031;-78
2022/08/10 14:27:18;;;;;;;1.75;1.60;;;;;;;;;;4978244;28;20042;-79
2022/08/10 14:29:44;;;;;;;3.50;1.70;;;;;;;;;;4964864;28;20954;-78
2022/08/10 14:32:11;;;;;;;1.95;1.60;;;;;;;;;;4962521;28;20075;-80
2022/08/10 14:34:39;;;;;;;2.42;1.70;;;;;;;;;;4963424;28;20118;-79
2022/08/10 14:37:16;;;;;;;2.03;1.80;;;;;;;;;;4964965;28;20599;-79
2022/08/10 14:39:44;;;;;;;1.83;1.70;;;;;;;;;;4971192;28;20375;-79
2022/08/10 14:42:13;;;;;;;2.08;1.65;;;;;;;;;;4970326;28;20085;-79
2022/08/10 14:44:43;;;;;;;3.90;1.70;;;;;;;;;;4965721;28;20030;-78
2022/08/10 14:47:10;;;;;;;2.65;1.75;;;;;;;;;;4969200;28;20099;-78
2022/08/10 14:49:38;;;;;;;3.25;1.80;;;;;;;;;;4969699;28;20050;-78
2022/08/10 14:52:04;;;;;;;3.20;1.80;;;;;;;;;;4969046;28;20036;-77
2022/08/10 14:54:31;;;;;;;2.90;2.08;;;;;;;;;;4967035;28;20101;-77
2022/08/10 14:57:05;;;;;;;2.67;1.70;;;;;;;;;;4981881;28;20052;-78
2022/08/10 14:59:32;;;;;;;3.75;2.30;;;;;;;;;;4964657;28;20054;-77
2022/08/10 15:02:01;;;;;;;2.95;1.80;;;;;;;;;;4965842;28;20037;-78
2022/08/10 15:04:28;;;;;;;3.78;1.80;;;;;;;;;;4966863;28;20519;-77
2022/08/10 15:06:56;;;;;;;2.05;1.85;;;;;;;;;;4966645;28;20058;-78